createdAt,value
2022-10-05T00:00:27.587Z,88.80
2022-10-05T00:06:51.600Z,88.80
2022-10-05T00:10:41.122Z,88.71
2022-10-05T00:14:33.582Z,88.60
2022-10-05T00:21:35.870Z,88.69
2022-10-05T00:24:37.632Z,88.61
2022-10-05T00:27:50.630Z,88.53
2022-10-05T00:30:53.701Z,88.59
2022-10-05T00:33:58.925Z,88.64
2022-10-05T00:37:02.581Z,88.78
2022-10-05T00:40:02.563Z,88.88
2022-10-05T00:43:02.670Z,88.83
2022-10-05T00:46:09.919Z,88.81
2022-10-05T00:49:11.488Z,88.81
2022-10-05T00:52:11.795Z,88.81
2022-10-05T00:55:15.696Z,88.80
2022-10-05T00:58:31.496Z,88.73
2022-10-05T01:01:44.587Z,88.68
2022-10-05T01:04:54.464Z,88.70
2022-10-05T01:08:17.842Z,88.81
2022-10-05T01:11:19.678Z,88.75
2022-10-05T01:14:21.854Z,88.68
2022-10-05T01:17:20.853Z,88.61
2022-10-05T01:20:25.537Z,88.63
2022-10-05T01:23:33.880Z,88.64
2022-10-05T01:26:53.861Z,88.69
2022-10-05T01:30:04.778Z,88.75
2022-10-05T01:33:15.727Z,88.81
2022-10-05T01:36:22.582Z,88.85
2022-10-05T01:39:29.736Z,88.86
2022-10-05T01:42:46.842Z,88.72
2022-10-05T01:45:57.824Z,88.58
2022-10-05T01:49:14.544Z,88.51
2022-10-05T01:52:21.704Z,88.50
2022-10-05T01:55:29.764Z,88.50
2022-10-05T01:58:31.497Z,88.57
2022-10-05T02:07:43.830Z,88.84
2022-10-05T02:10:48.541Z,88.90
2022-10-05T02:20:10.524Z,89.10
2022-10-05T02:23:12.375Z,88.99
2022-10-05T02:26:14.473Z,89.14
2022-10-05T02:29:30.804Z,89.30
2022-10-05T02:32:38.751Z,89.31
2022-10-05T02:35:46.594Z,89.43
2022-10-05T02:38:54.737Z,89.47
2022-10-05T02:42:02.677Z,89.40
2022-10-05T02:46:13.441Z,89.42
2022-10-05T02:50:14.484Z,89.37
2022-10-05T02:54:06.750Z,89.18
2022-10-05T02:58:02.040Z,89.21
2022-10-05T03:04:01.646Z,89.09
2022-10-05T03:08:08.854Z,89.10
2022-10-05T03:12:10.116Z,89.19
2022-10-05T03:16:11.396Z,89.12
2022-10-05T03:20:02.049Z,89.23
2022-10-05T03:23:24.811Z,89.11
2022-10-05T03:26:29.488Z,89.24
2022-10-05T03:29:52.799Z,89.40
2022-10-05T03:33:24.365Z,89.70
2022-10-05T03:36:40.794Z,89.84
2022-10-05T03:39:48.404Z,89.91
2022-10-05T03:42:53.389Z,89.95
2022-10-05T03:53:10.488Z,89.93
2022-10-05T03:56:17.525Z,89.69
2022-10-05T03:59:20.734Z,89.43
2022-10-05T04:02:25.494Z,89.36
2022-10-05T04:05:28.716Z,89.35
2022-10-05T04:09:35.764Z,89.33
2022-10-05T04:13:40.117Z,89.22
2022-10-05T04:17:53.080Z,89.02
2022-10-05T04:21:48.597Z,89.00
2022-10-05T04:28:59.761Z,89.63
2022-10-05T04:32:10.583Z,89.70
2022-10-05T04:35:21.346Z,89.70
2022-10-05T04:38:41.734Z,89.80
2022-10-05T04:41:55.432Z,89.98
2022-10-05T04:45:02.231Z,90.00
2022-10-05T04:48:18.419Z,89.93
2022-10-05T04:51:32.592Z,89.76
2022-10-05T04:55:04.693Z,89.70
2022-10-05T04:58:09.688Z,89.67
2022-10-05T05:00:52.941Z,89.57
2022-10-05T05:03:46.292Z,89.47
2022-10-05T05:06:28.002Z,89.46
2022-10-05T05:09:17.449Z,89.57
2022-10-05T05:11:59.229Z,89.56
2022-10-05T05:15:05.247Z,89.55
2022-10-05T05:17:33.904Z,89.33
2022-10-05T05:20:18.707Z,89.24
2022-10-05T05:23:28.081Z,89.32
2022-10-05T05:26:29.325Z,89.38
2022-10-05T05:29:34.841Z,89.26
2022-10-05T05:32:19.288Z,89.23
2022-10-05T05:35:03.143Z,89.16
2022-10-05T05:38:07.938Z,88.97
2022-10-05T05:40:52.013Z,89.00
2022-10-05T05:44:15.410Z,89.06
2022-10-05T05:47:04.814Z,89.20
2022-10-05T05:50:20.101Z,89.20
2022-10-05T05:53:03.727Z,89.24
2022-10-05T05:55:48.183Z,89.33
2022-10-05T05:58:25.858Z,89.30
2022-10-05T06:01:31.850Z,89.29
2022-10-05T06:04:13.088Z,89.18
2022-10-05T06:06:51.382Z,89.10
2022-10-05T06:09:47.564Z,88.96
2022-10-05T06:12:28.500Z,88.83
2022-10-05T06:15:02.446Z,88.68
2022-10-05T06:17:55.416Z,88.43
2022-10-05T06:20:38.711Z,88.21
2022-10-05T06:23:34.614Z,87.97
2022-10-05T06:26:33.250Z,87.78
2022-10-05T06:29:09.027Z,87.67
2022-10-05T06:31:46.514Z,87.45
2022-10-05T06:34:32.258Z,87.25
2022-10-05T06:37:13.555Z,87.08
2022-10-05T06:40:00.857Z,86.90
2022-10-05T06:42:55.933Z,86.77
2022-10-05T06:45:47.117Z,86.58
2022-10-05T06:49:06.644Z,86.53
2022-10-05T06:52:13.779Z,86.13
2022-10-05T06:55:08.629Z,85.86
2022-10-05T06:58:21.225Z,85.45
2022-10-05T07:00:59.089Z,85.04
2022-10-05T07:03:31.837Z,85.27
2022-10-05T07:06:14.954Z,85.42
2022-10-05T07:09:17.721Z,85.24
2022-10-05T07:12:08.147Z,84.79
2022-10-05T07:14:48.987Z,84.52
2022-10-05T07:18:05.417Z,84.37
2022-10-05T07:20:53.709Z,84.15
2022-10-05T07:23:54.673Z,83.89
2022-10-05T07:26:34.797Z,83.56
2022-10-05T07:29:49.948Z,83.36
2022-10-05T07:32:43.113Z,83.03
2022-10-05T07:35:39.899Z,82.67
2022-10-05T07:38:20.008Z,82.85
2022-10-05T07:40:59.665Z,82.26
2022-10-05T07:44:02.146Z,81.91
2022-10-05T07:46:52.466Z,81.85
2022-10-05T07:49:47.617Z,81.71
2022-10-05T07:52:23.153Z,81.46
2022-10-05T07:55:12.521Z,81.39
2022-10-05T07:57:52.932Z,81.35
2022-10-05T08:00:24.972Z,81.30
2022-10-05T08:03:10.743Z,80.97
2022-10-05T08:05:45.412Z,80.93
2022-10-05T08:08:31.875Z,80.59
2022-10-05T08:11:20.302Z,80.14
2022-10-05T08:14:31.633Z,79.85
2022-10-05T08:17:16.952Z,79.09
2022-10-05T08:19:59.771Z,78.97
2022-10-05T08:22:43.352Z,78.43
2022-10-05T08:25:40.713Z,77.88
2022-10-05T08:28:31.841Z,76.24
2022-10-05T08:31:33.875Z,74.72
2022-10-05T08:34:35.112Z,74.47
2022-10-05T08:37:16.072Z,74.00
2022-10-05T08:40:04.114Z,73.29
2022-10-05T08:43:08.910Z,71.96
2022-10-05T08:46:05.177Z,71.93
2022-10-05T08:48:58.768Z,71.84
2022-10-05T08:52:07.172Z,70.90
2022-10-05T08:55:10.731Z,70.49
2022-10-05T08:57:46.906Z,68.70
2022-10-05T09:00:24.412Z,68.49
2022-10-05T09:03:38.814Z,68.40
2022-10-05T09:06:26.044Z,68.18
2022-10-05T09:09:25.272Z,66.99
2022-10-05T09:12:30.953Z,67.34
2022-10-05T09:15:30.021Z,66.79
2022-10-05T09:18:17.313Z,66.22
2022-10-05T09:20:54.173Z,66.24
2022-10-05T09:23:37.952Z,65.36
2022-10-05T09:26:42.812Z,65.34
2022-10-05T09:29:44.984Z,65.54
2022-10-05T09:32:31.377Z,64.17
2022-10-05T09:35:33.765Z,64.83
2022-10-05T09:38:44.234Z,64.34
2022-10-05T09:41:54.813Z,63.73
2022-10-05T09:44:46.630Z,64.77
2022-10-05T09:47:45.592Z,63.99
2022-10-05T09:51:08.153Z,64.12
2022-10-05T09:54:11.111Z,63.80
2022-10-05T09:57:12.280Z,63.70
2022-10-05T09:59:43.494Z,63.54
2022-10-05T10:02:27.809Z,63.32
2022-10-05T10:05:25.072Z,62.95
2022-10-05T10:08:34.913Z,62.74
2022-10-05T10:12:16.052Z,62.50
2022-10-05T10:15:21.472Z,62.33
2022-10-05T10:18:26.871Z,62.53
2022-10-05T10:21:44.082Z,61.64
2022-10-05T10:25:08.912Z,62.70
2022-10-05T10:28:18.173Z,62.06
2022-10-05T10:31:16.978Z,61.48
2022-10-05T10:34:32.222Z,60.75
2022-10-05T10:37:21.553Z,60.04
2022-10-05T10:40:35.144Z,60.02
2022-10-05T10:43:39.632Z,60.84
2022-10-05T10:46:45.262Z,60.56
2022-10-05T10:49:35.662Z,60.39
2022-10-05T10:52:20.393Z,59.91
2022-10-05T10:55:06.485Z,60.41
2022-10-05T10:58:50.915Z,60.09
2022-10-05T11:01:59.937Z,58.25
2022-10-05T11:05:25.815Z,56.89
2022-10-05T11:08:12.961Z,58.33
2022-10-05T11:11:05.959Z,57.48
2022-10-05T11:14:03.702Z,57.30
2022-10-05T11:17:16.512Z,57.15
2022-10-05T11:20:16.145Z,56.90
2022-10-05T11:23:10.544Z,56.55
2022-10-05T11:25:51.405Z,56.22
2022-10-05T11:28:40.729Z,56.25
2022-10-05T11:31:48.782Z,56.67
2022-10-05T11:34:50.754Z,56.59
2022-10-05T11:37:59.497Z,55.64
2022-10-05T11:41:02.490Z,55.89
2022-10-05T11:44:13.897Z,56.44
2022-10-05T11:47:10.895Z,56.31
2022-10-05T11:49:47.925Z,55.83
2022-10-05T11:52:46.663Z,53.93
2022-10-05T11:56:19.521Z,52.72
2022-10-05T11:58:54.527Z,52.52
2022-10-05T12:01:38.556Z,52.03
2022-10-05T12:04:09.904Z,51.84
2022-10-05T12:06:54.872Z,51.27
2022-10-05T12:09:38.782Z,50.50
2022-10-05T12:12:29.240Z,51.09
2022-10-05T12:15:20.654Z,51.63
2022-10-05T12:17:55.671Z,51.42
2022-10-05T12:20:46.676Z,51.33
2022-10-05T12:23:37.876Z,50.85
2022-10-05T12:26:16.841Z,50.00
2022-10-05T12:28:53.856Z,50.62
2022-10-05T12:31:43.605Z,49.41
2022-10-05T12:34:33.340Z,49.89
2022-10-05T12:37:46.769Z,50.63
2022-10-05T12:40:40.496Z,51.09
2022-10-05T12:43:27.067Z,50.77
2022-10-05T12:46:43.409Z,50.88
2022-10-05T12:49:56.517Z,51.01
2022-10-05T12:53:15.635Z,51.02
2022-10-05T12:56:11.877Z,50.94
2022-10-05T12:59:10.744Z,50.65
2022-10-05T13:01:49.443Z,48.60
2022-10-05T13:04:53.496Z,48.40
2022-10-05T13:07:46.196Z,49.18
2022-10-05T13:10:38.564Z,48.40
2022-10-05T13:13:28.154Z,48.02
2022-10-05T13:16:17.448Z,48.44
2022-10-05T13:19:04.980Z,47.70
2022-10-05T13:22:04.915Z,47.90
2022-10-05T13:25:26.188Z,47.24
2022-10-05T13:28:22.128Z,45.90
2022-10-05T13:31:23.605Z,47.23
2022-10-05T13:34:15.731Z,48.26
2022-10-05T13:37:24.382Z,48.64
2022-10-05T13:40:05.105Z,48.64
2022-10-05T13:43:04.372Z,49.29
2022-10-05T13:45:41.888Z,48.69
2022-10-05T13:48:19.239Z,48.72
2022-10-05T13:51:18.952Z,48.03
2022-10-05T13:54:15.542Z,48.05
2022-10-05T13:56:53.397Z,48.10
2022-10-05T13:59:33.214Z,49.11
2022-10-05T14:02:11.431Z,48.96
2022-10-05T14:04:49.875Z,49.83
2022-10-05T14:07:32.027Z,49.13
2022-10-05T14:10:03.703Z,49.84
2022-10-05T14:12:46.166Z,49.79
2022-10-05T14:15:30.229Z,50.40
2022-10-05T14:17:59.121Z,49.95
2022-10-05T14:20:34.574Z,49.31
2022-10-05T14:23:17.301Z,49.58
2022-10-05T14:25:55.092Z,49.37
2022-10-05T14:28:26.440Z,49.79
2022-10-05T14:31:13.297Z,49.88
2022-10-05T14:33:42.969Z,50.20
2022-10-05T14:36:25.048Z,50.74
2022-10-05T14:39:02.458Z,51.27
2022-10-05T14:41:37.972Z,51.89
2022-10-05T14:44:24.462Z,52.27
2022-10-05T14:47:02.909Z,52.13
2022-10-05T14:49:36.571Z,52.49
2022-10-05T14:52:32.977Z,52.57
2022-10-05T14:55:31.522Z,52.70
2022-10-05T14:58:24.831Z,53.04
2022-10-05T15:01:05.880Z,53.95
2022-10-05T15:04:03.632Z,54.37
2022-10-05T15:06:43.012Z,54.66
2022-10-05T15:09:47.758Z,54.94
2022-10-05T15:12:33.417Z,55.01
2022-10-05T15:15:29.857Z,55.29
2022-10-05T15:18:06.470Z,55.67
2022-10-05T15:20:53.793Z,56.00
2022-10-05T15:27:01.415Z,57.30
2022-10-05T15:30:25.796Z,57.38
2022-10-05T15:33:25.446Z,57.91
2022-10-05T15:36:43.386Z,58.60
2022-10-05T15:39:36.458Z,59.43
2022-10-05T15:42:16.938Z,59.72
2022-10-05T15:45:14.203Z,60.04
2022-10-05T15:48:52.056Z,60.14
2022-10-05T15:51:58.293Z,60.12
2022-10-05T15:55:19.167Z,59.71
2022-10-05T15:58:47.430Z,59.70
2022-10-05T16:01:53.067Z,59.95
2022-10-05T16:05:10.298Z,60.34
2022-10-05T16:08:13.168Z,60.97
2022-10-05T16:10:47.437Z,61.49
2022-10-05T16:13:44.317Z,62.05
2022-10-05T16:16:42.975Z,62.32
2022-10-05T16:19:37.547Z,62.65
2022-10-05T16:22:47.796Z,63.36
2022-10-05T16:26:14.721Z,64.37
2022-10-05T16:29:15.707Z,65.09
2022-10-05T16:32:30.907Z,65.57
2022-10-05T16:35:30.567Z,65.95
2022-10-05T16:38:21.913Z,66.14
2022-10-05T16:41:38.823Z,66.06
2022-10-05T16:44:36.842Z,66.08
2022-10-05T16:47:42.052Z,66.50
2022-10-05T16:50:25.060Z,66.71
2022-10-05T16:53:04.324Z,66.93
2022-10-05T16:55:41.531Z,67.02
2022-10-05T16:58:50.053Z,67.33
2022-10-05T17:02:02.013Z,67.47
2022-10-05T17:05:36.867Z,67.50
2022-10-05T17:08:34.007Z,67.83
2022-10-05T17:11:34.693Z,68.04
2022-10-05T17:14:27.489Z,68.36
2022-10-05T17:17:25.129Z,68.76
2022-10-05T17:20:54.867Z,68.79
2022-10-05T17:23:55.946Z,69.16
2022-10-05T17:26:56.566Z,69.30
2022-10-05T17:30:16.327Z,69.59
2022-10-05T17:33:24.593Z,69.97
2022-10-05T17:36:09.009Z,70.36
2022-10-05T17:39:13.817Z,70.83
2022-10-05T17:41:44.070Z,71.19
2022-10-05T17:44:27.491Z,71.52
2022-10-05T17:47:04.989Z,71.74
2022-10-05T17:50:18.342Z,71.85
2022-10-05T17:54:00.852Z,71.72
2022-10-05T17:56:34.087Z,72.09
2022-10-05T17:59:07.887Z,72.60
2022-10-05T18:01:41.831Z,72.58
2022-10-05T18:04:13.711Z,72.46
2022-10-05T18:06:59.387Z,72.45
2022-10-05T18:09:28.267Z,72.51
2022-10-05T18:12:19.908Z,72.67
2022-10-05T18:15:14.607Z,72.76
2022-10-05T18:17:51.636Z,73.08
2022-10-05T18:20:32.050Z,73.52
2022-10-05T18:23:07.492Z,73.77
2022-10-05T18:26:20.914Z,74.10
2022-10-05T18:29:59.447Z,74.45
2022-10-05T18:32:31.608Z,74.76
2022-10-05T18:35:13.927Z,74.89
2022-10-05T18:38:00.031Z,75.11
2022-10-05T18:41:09.666Z,75.43
2022-10-05T18:43:41.357Z,75.77
2022-10-05T18:46:35.943Z,76.11
2022-10-05T18:49:11.047Z,76.49
2022-10-05T18:51:52.023Z,76.86
2022-10-05T18:54:39.863Z,77.05
2022-10-05T18:57:45.919Z,77.36
2022-10-05T19:00:34.678Z,77.51
2022-10-05T19:03:40.638Z,77.58
2022-10-05T19:06:13.747Z,77.75
2022-10-05T19:08:55.657Z,77.94
2022-10-05T19:11:55.450Z,78.10
2022-10-05T19:14:55.691Z,78.35
2022-10-05T19:17:54.787Z,78.40
2022-10-05T19:20:40.277Z,78.53
2022-10-05T19:23:56.854Z,78.58
2022-10-05T19:27:02.237Z,78.61
2022-10-05T19:29:42.563Z,78.61
2022-10-05T19:33:07.767Z,78.64
2022-10-05T19:36:17.426Z,78.66
2022-10-05T19:39:04.237Z,78.61
2022-10-05T19:42:07.528Z,78.76
2022-10-05T19:45:00.507Z,78.87
2022-10-05T19:48:07.737Z,78.99
2022-10-05T19:50:59.642Z,79.06
2022-10-05T19:53:47.275Z,79.25
2022-10-05T19:56:26.803Z,79.61
2022-10-05T19:59:00.784Z,80.07
2022-10-05T20:01:39.342Z,80.49
2022-10-05T20:04:09.832Z,80.86
2022-10-05T20:06:40.043Z,81.28
2022-10-05T20:09:23.714Z,81.59
2022-10-05T20:11:54.118Z,81.61
2022-10-05T20:14:58.557Z,81.69
2022-10-05T20:17:48.087Z,81.44
2022-10-05T20:20:44.543Z,81.24
2022-10-05T20:23:30.853Z,81.25
2022-10-05T20:26:18.281Z,81.27
2022-10-05T20:28:48.229Z,81.55
2022-10-05T20:31:20.580Z,81.36
2022-10-05T20:33:49.367Z,81.18
2022-10-05T20:36:18.063Z,81.21
2022-10-05T20:38:46.844Z,81.27
2022-10-05T20:41:17.056Z,81.00
2022-10-05T20:43:45.643Z,80.63
2022-10-05T20:46:14.351Z,80.58
2022-10-05T20:48:44.043Z,80.41
2022-10-05T20:51:12.645Z,80.15
2022-10-05T20:53:58.950Z,80.05
2022-10-05T20:56:27.765Z,79.81
2022-10-05T20:58:56.912Z,79.64
2022-10-05T21:01:27.313Z,79.58
2022-10-05T21:03:56.443Z,79.50
2022-10-05T21:06:28.953Z,79.54
2022-10-05T21:08:57.594Z,79.46
2022-10-05T21:11:26.079Z,79.34
2022-10-05T21:13:54.951Z,79.36
2022-10-05T21:16:25.336Z,79.28
2022-10-05T21:18:53.986Z,79.30
2022-10-05T21:21:23.183Z,79.28
2022-10-05T21:23:51.883Z,79.28
2022-10-05T21:26:21.373Z,79.42
2022-10-05T21:28:50.299Z,79.64
2022-10-05T21:31:19.302Z,79.69
2022-10-05T21:33:47.986Z,79.62
2022-10-05T21:36:22.425Z,79.64
2022-10-05T21:38:55.354Z,79.69
2022-10-05T21:41:24.442Z,79.74
2022-10-05T21:43:53.043Z,79.80
2022-10-05T21:49:23.875Z,80.27
2022-10-05T21:51:52.959Z,80.00
2022-10-05T21:54:24.421Z,80.01
2022-10-05T21:56:58.841Z,80.11
2022-10-05T22:03:00.001Z,80.40
2022-10-05T22:06:25.998Z,80.40
2022-10-05T22:09:33.861Z,80.44
2022-10-05T22:12:39.007Z,80.63
2022-10-05T22:15:36.897Z,81.10
2022-10-05T22:19:26.407Z,81.42
2022-10-05T22:27:07.900Z,80.97
2022-10-05T22:30:14.917Z,80.72
2022-10-05T22:33:17.136Z,80.49
2022-10-05T22:36:14.086Z,80.21
2022-10-05T22:39:20.330Z,80.12
2022-10-05T22:50:07.859Z,79.43
2022-10-05T22:53:57.519Z,79.04
2022-10-05T22:57:47.267Z,78.94
2022-10-05T23:01:47.842Z,78.76
2022-10-05T23:05:37.859Z,78.68
2022-10-05T23:08:43.100Z,78.67
2022-10-05T23:11:54.026Z,78.62
2022-10-05T23:14:54.110Z,78.71
2022-10-05T23:18:04.281Z,78.80
2022-10-05T23:22:04.530Z,78.90
2022-10-05T23:25:06.918Z,78.95
2022-10-05T23:32:20.110Z,78.80
2022-10-05T23:36:10.759Z,78.80
2022-10-05T23:47:09.707Z,79.16
2022-10-05T23:50:10.801Z,79.18
2022-10-05T23:53:22.896Z,79.18
2022-10-05T23:56:29.310Z,79.26
2022-10-05T23:59:30.957Z,79.51
